This is the latest recevied weather packets stored in our database for station/object JH1LWU-13. If no packets are shown the sender has not sent any weather packets the latest 10 day(s).
| Time | Temp. | Humidity | Pressure | Rain* | Wind** | Luminosity | Snow |
|---|---|---|---|---|---|---|---|
| 1787573642 | 27.78° C | 71% | 1008 hPa | - | - | - | - |
| 1787571841 | 27.78° C | 72% | 1010 hPa | - | - | - | - |
| 1787570040 | 27.78° C | 69% | 1008 hPa | - | - | - | - |
| 1787568239 | 27.78° C | 68% | 1008 hPa | - | - | - | - |
| 1787566438 | 28.33° C | 68% | 1009 hPa | - | - | - | - |
| 1787564637 | 28.33° C | 65% | 1008 hPa | - | - | - | - |
| 1787562836 | 28.33° C | 66% | 1008 hPa | - | - | - | - |
| 1787561035 | 28.89° C | 64% | 1010 hPa | - | - | - | - |
| 1787559234 | 30° C | 62% | 1008 hPa | - | - | - | - |
| 1787557433 | 30.56° C | 60% | 1009 hPa | - | - | - | - |
| 1787555632 | 30.56° C | 56% | 1008 hPa | - | - | - | - |
| 1787553831 | 31.11° C | 55% | 1010 hPa | - | - | - | - |
| 1787552030 | 31.67° C | 53% | 1011 hPa | - | - | - | - |
| 1787550229 | 32.22° C | 52% | 1010 hPa | - | - | - | - |
| 1787548428 | 32.78° C | 51% | 1010 hPa | - | - | - | - |
| 1787546627 | 32.78° C | 50% | 1009 hPa | - | - | - | - |
| 1787544826 | 32.78° C | 51% | 1010 hPa | - | - | - | - |
| 1787543025 | 33.89° C | 51% | 1012 hPa | - | - | - | - |
| 1787541224 | 33.33° C | 51% | 1009 hPa | - | - | - | - |
| 1787539423 | 34.44° C | 50% | 1010 hPa | - | - | - | - |
| 1787537622 | 33.89° C | 50% | 1010 hPa | - | - | - | - |
| 1787535821 | 33.89° C | 50% | 1012 hPa | - | - | - | - |
| 1787534020 | 32.22° C | 56% | 1012 hPa | - | - | - | - |
| 1787532219 | 33.33° C | 53% | 1011 hPa | - | - | - | - |
| 1787530418 | 32.22° C | 58% | 1010 hPa | - | - | - | - |
* Rain since midnight (hover to see other rain measurements)
** Current wind speed in m/s (hover to see current wind gust speed)